sensor_id;sensor_type;location;lat;lon;timestamp;pressure;altitude;pressure_sealevel;temperature;humidity
15477;BME280;7840;42.702;23.296;2022-12-05T00:01:40;95962.28;;;4.97;100.00
15477;BME280;7840;42.702;23.296;2022-12-05T00:04:10;95956.66;;;5.00;100.00
15477;BME280;7840;42.702;23.296;2022-12-05T00:07:10;95960.34;;;5.06;100.00
15477;BME280;7840;42.702;23.296;2022-12-05T00:09:41;95962.34;;;5.04;100.00
15477;BME280;7840;42.702;23.296;2022-12-05T00:12:09;95972.84;;;5.04;100.00
15477;BME280;7840;42.702;23.296;2022-12-05T00:14:36;95970.41;;;5.02;100.00
15477;BME280;7840;42.702;23.296;2022-12-05T00:17:19;95965.16;;;5.02;100.00
15477;BME280;7840;42.702;23.296;2022-12-05T00:19:50;95969.97;;;4.99;100.00
15477;BME280;7840;42.702;23.296;2022-12-05T00:22:21;95974.81;;;4.95;100.00
15477;BME280;7840;42.702;23.296;2022-12-05T00:24:50;95975.63;;;4.96;100.00
15477;BME280;7840;42.702;23.296;2022-12-05T00:27:17;95978.47;;;5.01;100.00
15477;BME280;7840;42.702;23.296;2022-12-05T00:29:45;95985.88;;;4.90;100.00
15477;BME280;7840;42.702;23.296;2022-12-05T00:32:13;95985.31;;;4.95;100.00
15477;BME280;7840;42.702;23.296;2022-12-05T00:34:41;95985.25;;;4.88;100.00
15477;BME280;7840;42.702;23.296;2022-12-05T00:37:08;95993.59;;;4.99;100.00
15477;BME280;7840;42.702;23.296;2022-12-05T00:39:36;95981.88;;;4.94;100.00
15477;BME280;7840;42.702;23.296;2022-12-05T00:42:05;95979.72;;;5.05;100.00
15477;BME280;7840;42.702;23.296;2022-12-05T00:44:33;95988.97;;;5.01;100.00
15477;BME280;7840;42.702;23.296;2022-12-05T00:47:00;95981.00;;;4.87;100.00
15477;BME280;7840;42.702;23.296;2022-12-05T00:49:28;95989.09;;;4.92;100.00
15477;BME280;7840;42.702;23.296;2022-12-05T00:51:55;95978.00;;;4.90;100.00
15477;BME280;7840;42.702;23.296;2022-12-05T00:54:23;95978.31;;;5.02;100.00
15477;BME280;7840;42.702;23.296;2022-12-05T00:56:51;95974.34;;;4.91;100.00
15477;BME280;7840;42.702;23.296;2022-12-05T00:59:22;95970.94;;;4.70;100.00
15477;BME280;7840;42.702;23.296;2022-12-05T01:01:51;95960.50;;;4.76;100.00
15477;BME280;7840;42.702;23.296;2022-12-05T01:04:20;95956.47;;;4.80;100.00
15477;BME280;7840;42.702;23.296;2022-12-05T01:06:48;95964.06;;;4.69;100.00
15477;BME280;7840;42.702;23.296;2022-12-05T01:09:18;95955.88;;;4.78;100.00
15477;BME280;7840;42.702;23.296;2022-12-05T01:11:47;95953.69;;;4.82;100.00
15477;BME280;7840;42.702;23.296;2022-12-05T01:14:17;95958.59;;;4.91;100.00
15477;BME280;7840;42.702;23.296;2022-12-05T01:16:47;95950.81;;;4.77;100.00
15477;BME280;7840;42.702;23.296;2022-12-05T01:19:19;95948.50;;;4.88;100.00
15477;BME280;7840;42.702;23.296;2022-12-05T01:21:47;95954.06;;;4.79;100.00
15477;BME280;7840;42.702;23.296;2022-12-05T01:24:15;95948.84;;;4.85;100.00
15477;BME280;7840;42.702;23.296;2022-12-05T01:26:57;95952.50;;;4.84;100.00
15477;BME280;7840;42.702;23.296;2022-12-05T01:29:25;95944.47;;;4.92;100.00
15477;BME280;7840;42.702;23.296;2022-12-05T01:31:54;95940.84;;;4.93;100.00
15477;BME280;7840;42.702;23.296;2022-12-05T01:34:22;95944.00;;;4.82;100.00
15477;BME280;7840;42.702;23.296;2022-12-05T01:36:49;95932.84;;;4.80;100.00
15477;BME280;7840;42.702;23.296;2022-12-05T01:39:18;95934.94;;;4.85;100.00
15477;BME280;7840;42.702;23.296;2022-12-05T01:41:47;95930.13;;;4.88;100.00
15477;BME280;7840;42.702;23.296;2022-12-05T01:47:23;95934.72;;;4.86;100.00
15477;BME280;7840;42.702;23.296;2022-12-05T01:49:52;95924.63;;;4.83;100.00
15477;BME280;7840;42.702;23.296;2022-12-05T01:52:22;95931.63;;;4.76;100.00
15477;BME280;7840;42.702;23.296;2022-12-05T01:54:55;95928.88;;;4.63;100.00
15477;BME280;7840;42.702;23.296;2022-12-05T01:57:24;95932.38;;;4.70;100.00
15477;BME280;7840;42.702;23.296;2022-12-05T01:59:58;95932.84;;;4.80;100.00
15477;BME280;7840;42.702;23.296;2022-12-05T02:02:29;95934.56;;;4.66;100.00
15477;BME280;7840;42.702;23.296;2022-12-05T02:05:01;95926.00;;;4.79;100.00
15477;BME280;7840;42.702;23.296;2022-12-05T02:07:30;95921.75;;;4.78;100.00
15477;BME280;7840;42.702;23.296;2022-12-05T02:09:58;95936.75;;;4.84;100.00
15477;BME280;7840;42.702;23.296;2022-12-05T02:12:26;95942.75;;;4.78;100.00
15477;BME280;7840;42.702;23.296;2022-12-05T02:15:08;95931.69;;;4.83;100.00
15477;BME280;7840;42.702;23.296;2022-12-05T02:17:51;95942.25;;;4.68;100.00
15477;BME280;7840;42.702;23.296;2022-12-05T02:20:33;95932.38;;;4.70;100.00
15477;BME280;7840;42.702;23.296;2022-12-05T02:23:26;95931.38;;;4.71;100.00
15477;BME280;7840;42.702;23.296;2022-12-05T02:32:08;95922.75;;;4.77;100.00
15477;BME280;7840;42.702;23.296;2022-12-05T02:34:43;95918.97;;;4.86;100.00
15477;BME280;7840;42.702;23.296;2022-12-05T02:37:15;95924.47;;;4.91;100.00
15477;BME280;7840;42.702;23.296;2022-12-05T02:39:50;95924.19;;;4.80;100.00
15477;BME280;7840;42.702;23.296;2022-12-05T02:42:25;95916.13;;;4.81;100.00
15477;BME280;7840;42.702;23.296;2022-12-05T02:44:58;95916.94;;;4.82;100.00
15477;BME280;7840;42.702;23.296;2022-12-05T02:47:30;95915.38;;;4.87;100.00
15477;BME280;7840;42.702;23.296;2022-12-05T02:49:59;95914.75;;;4.85;100.00
15477;BME280;7840;42.702;23.296;2022-12-05T02:52:31;95909.94;;;4.89;100.00
15477;BME280;7840;42.702;23.296;2022-12-05T02:55:00;95914.59;;;4.93;100.00
15477;BME280;7840;42.702;23.296;2022-12-05T02:57:29;95911.84;;;4.80;100.00
15477;BME280;7840;42.702;23.296;2022-12-05T02:59:59;95906.09;;;4.91;100.00
15477;BME280;7840;42.702;23.296;2022-12-05T03:02:31;95911.59;;;4.97;100.00
15477;BME280;7840;42.702;23.296;2022-12-05T03:05:07;95906.97;;;4.99;100.00
15477;BME280;7840;42.702;23.296;2022-12-05T03:07:45;95901.75;;;5.05;100.00
15477;BME280;7840;42.702;23.296;2022-12-05T03:10:18;95905.59;;;5.03;100.00
15477;BME280;7840;42.702;23.296;2022-12-05T03:12:52;95915.09;;;5.04;100.00
15477;BME280;7840;42.702;23.296;2022-12-05T03:15:40;95906.59;;;5.02;100.00
15477;BME280;7840;42.702;23.296;2022-12-05T03:18:16;95909.34;;;4.93;100.00
15477;BME280;7840;42.702;23.296;2022-12-05T03:20:47;95908.25;;;5.09;100.00
15477;BME280;7840;42.702;23.296;2022-12-05T03:23:22;95907.81;;;5.06;100.00
15477;BME280;7840;42.702;23.296;2022-12-05T03:25:55;95916.00;;;5.17;100.00
15477;BME280;7840;42.702;23.296;2022-12-05T03:28:49;95921.66;;;5.21;100.00
15477;BME280;7840;42.702;23.296;2022-12-05T03:31:23;95920.47;;;5.24;100.00
15477;BME280;7840;42.702;23.296;2022-12-05T03:33:58;95926.91;;;5.21;100.00
15477;BME280;7840;42.702;23.296;2022-12-05T03:36:45;95927.69;;;5.15;100.00
15477;BME280;7840;42.702;23.296;2022-12-05T03:39:20;95925.44;;;5.12;100.00
15477;BME280;7840;42.702;23.296;2022-12-05T03:41:58;95920.81;;;5.14;100.00
15477;BME280;7840;42.702;23.296;2022-12-05T03:44:31;95922.25;;;5.16;100.00
15477;BME280;7840;42.702;23.296;2022-12-05T03:47:04;95925.06;;;5.15;100.00
15477;BME280;7840;42.702;23.296;2022-12-05T03:49:40;95915.94;;;5.11;100.00
15477;BME280;7840;42.702;23.296;2022-12-05T03:52:13;95922.41;;;5.08;100.00
15477;BME280;7840;42.702;23.296;2022-12-05T03:54:46;95926.41;;;5.04;100.00
15477;BME280;7840;42.702;23.296;2022-12-05T03:57:18;95923.44;;;5.14;100.00
15477;BME280;7840;42.702;23.296;2022-12-05T03:59:51;95920.59;;;5.09;100.00
15477;BME280;7840;42.702;23.296;2022-12-05T04:02:24;95923.22;;;5.09;100.00
15477;BME280;7840;42.702;23.296;2022-12-05T04:04:58;95927.81;;;5.07;100.00
15477;BME280;7840;42.702;23.296;2022-12-05T04:07:30;95917.16;;;5.08;100.00
15477;BME280;7840;42.702;23.296;2022-12-05T04:10:02;95922.06;;;5.18;100.00
15477;BME280;7840;42.702;23.296;2022-12-05T04:12:34;95915.19;;;5.17;100.00
15477;BME280;7840;42.702;23.296;2022-12-05T04:15:07;95910.28;;;5.14;100.00
15477;BME280;7840;42.702;23.296;2022-12-05T04:17:42;95906.69;;;5.15;100.00
15477;BME280;7840;42.702;23.296;2022-12-05T04:20:16;95906.69;;;5.15;100.00
15477;BME280;7840;42.702;23.296;2022-12-05T04:23:02;95899.75;;;5.07;100.00
15477;BME280;7840;42.702;23.296;2022-12-05T04:25:36;95897.81;;;5.16;100.00
15477;BME280;7840;42.702;23.296;2022-12-05T04:28:22;95898.22;;;5.19;100.00
15477;BME280;7840;42.702;23.296;2022-12-05T04:31:10;95904.38;;;5.05;100.00
15477;BME280;7840;42.702;23.296;2022-12-05T04:33:44;95902.31;;;5.01;100.00
15477;BME280;7840;42.702;23.296;2022-12-05T04:36:21;95902.56;;;5.06;100.00
15477;BME280;7840;42.702;23.296;2022-12-05T04:39:02;95913.06;;;5.06;100.00
15477;BME280;7840;42.702;23.296;2022-12-05T04:41:36;95908.22;;;5.03;100.00
15477;BME280;7840;42.702;23.296;2022-12-05T04:44:07;95917.19;;;5.15;100.00
15477;BME280;7840;42.702;23.296;2022-12-05T04:46:38;95920.44;;;5.17;100.00
15477;BME280;7840;42.702;23.296;2022-12-05T04:49:09;95914.22;;;5.25;100.00
15477;BME280;7840;42.702;23.296;2022-12-05T04:51:41;95917.19;;;5.15;100.00
15477;BME280;7840;42.702;23.296;2022-12-05T04:54:14;95919.66;;;5.23;100.00
15477;BME280;7840;42.702;23.296;2022-12-05T04:56:45;95913.50;;;5.37;100.00
15477;BME280;7840;42.702;23.296;2022-12-05T04:59:16;95925.38;;;5.33;100.00
15477;BME280;7840;42.702;23.296;2022-12-05T05:01:49;95929.00;;;5.32;100.00
15477;BME280;7840;42.702;23.296;2022-12-05T05:04:22;95921.53;;;5.29;100.00
15477;BME280;7840;42.702;23.296;2022-12-05T05:12:48;95939.81;;;5.16;100.00
15477;BME280;7840;42.702;23.296;2022-12-05T05:15:20;95937.06;;;5.24;100.00
15477;BME280;7840;42.702;23.296;2022-12-05T05:17:50;95945.34;;;5.28;100.00
15477;BME280;7840;42.702;23.296;2022-12-05T05:20:23;95943.56;;;5.35;100.00
15477;BME280;7840;42.702;23.296;2022-12-05T05:23:05;95951.59;;;5.27;100.00
15477;BME280;7840;42.702;23.296;2022-12-05T05:25:34;95952.41;;;5.27;100.00
15477;BME280;7840;42.702;23.296;2022-12-05T05:28:15;95964.31;;;5.23;100.00
15477;BME280;7840;42.702;23.296;2022-12-05T05:30:43;95949.97;;;5.26;100.00
15477;BME280;7840;42.702;23.296;2022-12-05T05:33:11;95949.66;;;5.35;100.00
15477;BME280;7840;42.702;23.296;2022-12-05T05:35:39;95953.22;;;5.28;100.00
15477;BME280;7840;42.702;23.296;2022-12-05T05:41:25;95950.28;;;5.37;100.00
15477;BME280;7840;42.702;23.296;2022-12-05T05:43:55;95947.22;;;5.34;100.00
15477;BME280;7840;42.702;23.296;2022-12-05T05:46:25;95953.91;;;5.36;100.00
15477;BME280;7840;42.702;23.296;2022-12-05T05:48:54;95952.03;;;5.30;100.00
15477;BME280;7840;42.702;23.296;2022-12-05T05:51:23;95952.31;;;5.14;100.00
15477;BME280;7840;42.702;23.296;2022-12-05T05:53:58;95952.59;;;5.26;100.00
15477;BME280;7840;42.702;23.296;2022-12-05T05:56:34;95949.97;;;5.26;100.00
15477;BME280;7840;42.702;23.296;2022-12-05T05:59:03;95964.53;;;5.28;100.00
15477;BME280;7840;42.702;23.296;2022-12-05T06:01:33;95967.91;;;5.43;100.00
15477;BME280;7840;42.702;23.296;2022-12-05T06:04:01;95967.91;;;5.43;100.00
15477;BME280;7840;42.702;23.296;2022-12-05T06:06:29;95966.28;;;5.42;100.00
15477;BME280;7840;42.702;23.296;2022-12-05T06:11:26;95965.88;;;5.45;100.00
15477;BME280;7840;42.702;23.296;2022-12-05T06:14:19;95978.00;;;5.46;100.00
15477;BME280;7840;42.702;23.296;2022-12-05T06:16:51;95973.97;;;5.44;100.00
15477;BME280;7840;42.702;23.296;2022-12-05T06:19:19;95968.88;;;5.36;100.00
15477;BME280;7840;42.702;23.296;2022-12-05T06:21:50;95975.66;;;5.58;100.00
15477;BME280;7840;42.702;23.296;2022-12-05T06:24:20;95980.03;;;5.44;100.00
15477;BME280;7840;42.702;23.296;2022-12-05T06:26:50;95974.09;;;5.64;100.00
15477;BME280;7840;42.702;23.296;2022-12-05T06:29:31;95972.06;;;5.66;100.00
15477;BME280;7840;42.702;23.296;2022-12-05T06:32:22;95977.75;;;5.69;100.00
15477;BME280;7840;42.702;23.296;2022-12-05T06:34:58;95980.56;;;5.68;100.00
15477;BME280;7840;42.702;23.296;2022-12-05T06:37:40;95978.59;;;5.70;100.00
15477;BME280;7840;42.702;23.296;2022-12-05T06:40:12;95977.81;;;5.83;100.00
15477;BME280;7840;42.702;23.296;2022-12-05T06:42:42;95986.22;;;5.93;100.00
15477;BME280;7840;42.702;23.296;2022-12-05T06:45:13;95985.19;;;5.94;100.00
15477;BME280;7840;42.702;23.296;2022-12-05T06:47:41;95986.75;;;5.88;100.00
15477;BME280;7840;42.702;23.296;2022-12-05T06:50:17;95981.91;;;5.85;100.00
15477;BME280;7840;42.702;23.296;2022-12-05T06:52:45;95986.34;;;5.85;100.00
15477;BME280;7840;42.702;23.296;2022-12-05T06:55:28;95992.16;;;5.80;100.00
15477;BME280;7840;42.702;23.296;2022-12-05T06:57:56;95982.09;;;5.84;100.00
15477;BME280;7840;42.702;23.296;2022-12-05T07:00:25;95984.69;;;5.77;100.00
15477;BME280;7840;42.702;23.296;2022-12-05T07:03:24;95985.63;;;5.69;100.00
15477;BME280;7840;42.702;23.296;2022-12-05T07:06:20;95990.28;;;5.67;100.00
15477;BME280;7840;42.702;23.296;2022-12-05T07:08:59;95987.84;;;5.66;100.00
15477;BME280;7840;42.702;23.296;2022-12-05T07:11:27;95984.22;;;5.67;100.00
15477;BME280;7840;42.702;23.296;2022-12-05T07:14:02;95995.03;;;5.85;100.00
15477;BME280;7840;42.702;23.296;2022-12-05T07:16:34;96000.66;;;5.82;100.00
15477;BME280;7840;42.702;23.296;2022-12-05T07:19:02;95995.03;;;5.85;100.00
15477;BME280;7840;42.702;23.296;2022-12-05T07:21:58;95998.06;;;5.89;100.00
15477;BME280;7840;42.702;23.296;2022-12-05T07:24:47;95994.91;;;5.93;100.00
15477;BME280;7840;42.702;23.296;2022-12-05T07:27:22;95998.53;;;5.92;100.00
15477;BME280;7840;42.702;23.296;2022-12-05T07:29:53;95999.00;;;6.02;100.00
15477;BME280;7840;42.702;23.296;2022-12-05T07:32:31;95994.56;;;6.10;100.00
15477;BME280;7840;42.702;23.296;2022-12-05T07:35:14;96004.31;;;6.16;100.00
15477;BME280;7840;42.702;23.296;2022-12-05T07:37:42;96014.81;;;6.09;100.00
15477;BME280;7840;42.702;23.296;2022-12-05T07:40:21;96016.00;;;6.07;100.00
15477;BME280;7840;42.702;23.296;2022-12-05T07:43:02;96019.19;;;5.95;100.00
15477;BME280;7840;42.702;23.296;2022-12-05T07:45:33;96011.94;;;5.97;100.00
15477;BME280;7840;42.702;23.296;2022-12-05T07:48:21;96020.03;;;6.02;100.00
15477;BME280;7840;42.702;23.296;2022-12-05T07:50:51;96014.56;;;5.97;100.00
15477;BME280;7840;42.702;23.296;2022-12-05T07:53:19;96009.88;;;5.93;100.00
15477;BME280;7840;42.702;23.296;2022-12-05T07:55:46;96015.88;;;5.87;100.00
15477;BME280;7840;42.702;23.296;2022-12-05T07:58:14;96003.41;;;5.95;100.00
15477;BME280;7840;42.702;23.296;2022-12-05T08:00:47;95996.16;;;5.97;100.00
15477;BME280;7840;42.702;23.296;2022-12-05T08:03:19;95998.53;;;5.92;100.00
15477;BME280;7840;42.702;23.296;2022-12-05T08:05:47;95996.34;;;6.02;100.00
15477;BME280;7840;42.702;23.296;2022-12-05T08:08:14;95996.59;;;6.08;100.00
15477;BME280;7840;42.702;23.296;2022-12-05T08:10:54;96010.34;;;6.10;100.00
15477;BME280;7840;42.702;23.296;2022-12-05T08:13:22;96020.50;;;6.13;100.00
15477;BME280;7840;42.702;23.296;2022-12-05T08:16:08;96017.56;;;5.94;100.00
15477;BME280;7840;42.702;23.296;2022-12-05T08:18:40;96020.09;;;6.16;100.00
15477;BME280;7840;42.702;23.296;2022-12-05T08:21:13;96019.72;;;6.19;100.00
15477;BME280;7840;42.702;23.296;2022-12-05T08:23:44;96020.56;;;6.26;100.00
15477;BME280;7840;42.702;23.296;2022-12-05T08:26:23;96010.25;;;6.31;100.00
15477;BME280;7840;42.702;23.296;2022-12-05T08:28:52;96012.09;;;6.37;100.00
15477;BME280;7840;42.702;23.296;2022-12-05T08:31:23;96014.94;;;6.42;100.00
15477;BME280;7840;42.702;23.296;2022-12-05T08:33:59;96017.16;;;6.32;100.00
15477;BME280;7840;42.702;23.296;2022-12-05T08:36:31;96016.38;;;6.51;100.00
15477;BME280;7840;42.702;23.296;2022-12-05T08:39:17;96008.53;;;6.65;100.00
15477;BME280;7840;42.702;23.296;2022-12-05T08:41:47;96013.72;;;6.45;100.00
15477;BME280;7840;42.702;23.296;2022-12-05T08:44:14;96011.78;;;6.60;100.00
15477;BME280;7840;42.702;23.296;2022-12-05T08:46:54;96007.13;;;6.69;100.00
15477;BME280;7840;42.702;23.296;2022-12-05T08:49:26;96004.50;;;6.69;100.00
15477;BME280;7840;42.702;23.296;2022-12-05T08:52:10;96008.94;;;6.62;100.00
15477;BME280;7840;42.702;23.296;2022-12-05T08:54:38;96007.31;;;6.61;100.00
15477;BME280;7840;42.702;23.296;2022-12-05T08:57:10;96010.16;;;6.59;100.00
15477;BME280;7840;42.702;23.296;2022-12-05T08:59:41;96008.97;;;6.68;100.00
15477;BME280;7840;42.702;23.296;2022-12-05T09:02:09;96009.78;;;6.69;100.00
15477;BME280;7840;42.702;23.296;2022-12-05T09:04:38;96012.44;;;6.82;100.00
15477;BME280;7840;42.702;23.296;2022-12-05T09:07:07;96015.66;;;6.84;100.00
15477;BME280;7840;42.702;23.296;2022-12-05T09:09:35;96013.06;;;6.91;100.00
15477;BME280;7840;42.702;23.296;2022-12-05T09:12:03;96007.78;;;6.97;100.00
15477;BME280;7840;42.702;23.296;2022-12-05T09:14:31;96019.13;;;6.91;100.00
15477;BME280;7840;42.702;23.296;2022-12-05T09:16:59;96013.47;;;6.94;100.00
15477;BME280;7840;42.702;23.296;2022-12-05T09:19:27;96005.78;;;7.06;100.00
15477;BME280;7840;42.702;23.296;2022-12-05T09:24:48;96003.97;;;7.33;100.00
15477;BME280;7840;42.702;23.296;2022-12-05T09:27:16;96005.59;;;7.34;100.00
15477;BME280;7840;42.702;23.296;2022-12-05T09:29:44;96008.44;;;7.39;100.00
15477;BME280;7840;42.702;23.296;2022-12-05T09:32:11;95999.91;;;7.50;100.00
15477;BME280;7840;42.702;23.296;2022-12-05T09:34:43;96007.00;;;7.70;100.00
15477;BME280;7840;42.702;23.296;2022-12-05T09:37:12;95997.41;;;7.82;100.00
15477;BME280;7840;42.702;23.296;2022-12-05T09:39:44;95995.78;;;7.87;100.00
15477;BME280;7840;42.702;23.296;2022-12-05T09:42:23;95996.41;;;7.96;100.00
15477;BME280;7840;42.702;23.296;2022-12-05T09:45:21;95991.53;;;7.93;100.00
15477;BME280;7840;42.702;23.296;2022-12-05T09:48:00;95985.41;;;7.99;100.00
15477;BME280;7840;42.702;23.296;2022-12-05T09:50:38;95985.41;;;7.99;100.00
15477;BME280;7840;42.702;23.296;2022-12-05T09:53:24;95984.22;;;7.88;100.00
15477;BME280;7840;42.702;23.296;2022-12-05T09:56:16;95974.94;;;7.73;100.00
15477;BME280;7840;42.702;23.296;2022-12-05T09:58:48;95980.19;;;7.73;100.00
15477;BME280;7840;42.702;23.296;2022-12-05T10:01:32;95984.66;;;7.79;100.00
15477;BME280;7840;42.702;23.296;2022-12-05T10:04:19;95981.41;;;7.90;100.00
15477;BME280;7840;42.702;23.296;2022-12-05T10:07:10;95975.72;;;7.80;100.00
15477;BME280;7840;42.702;23.296;2022-12-05T10:09:53;95973.69;;;7.82;100.00
15477;BME280;7840;42.702;23.296;2022-12-05T10:12:46;95964.13;;;7.94;100.00
15477;BME280;7840;42.702;23.296;2022-12-05T10:15:27;95970.03;;;7.96;100.00
15477;BME280;7840;42.702;23.296;2022-12-05T10:18:00;95968.59;;;7.93;100.00
15477;BME280;7840;42.702;23.296;2022-12-05T10:20:33;95968.38;;;7.88;100.00
15477;BME280;7840;42.702;23.296;2022-12-05T10:23:11;95968.84;;;7.79;100.00
15477;BME280;7840;42.702;23.296;2022-12-05T10:25:43;95967.66;;;7.55;100.00
15477;BME280;7840;42.702;23.296;2022-12-05T10:28:16;95966.84;;;7.41;100.00
15477;BME280;7840;42.702;23.296;2022-12-05T10:30:55;95972.13;;;7.54;100.00
15477;BME280;7840;42.702;23.296;2022-12-05T10:33:27;95964.84;;;7.50;100.00
15477;BME280;7840;42.702;23.296;2022-12-05T10:36:13;95959.75;;;7.55;100.00
15477;BME280;7840;42.702;23.296;2022-12-05T10:38:43;95963.59;;;7.59;100.00
15477;BME280;7840;42.702;23.296;2022-12-05T10:41:17;95957.28;;;7.66;100.00
15477;BME280;7840;42.702;23.296;2022-12-05T10:43:46;95952.59;;;7.75;100.00
15477;BME280;7840;42.702;23.296;2022-12-05T10:46:17;95950.63;;;7.57;100.00
15477;BME280;7840;42.702;23.296;2022-12-05T10:48:45;95948.00;;;7.44;100.00
15477;BME280;7840;42.702;23.296;2022-12-05T10:51:14;95942.16;;;7.35;100.00
15477;BME280;7840;42.702;23.296;2022-12-05T10:53:46;95943.13;;;7.48;100.00
15477;BME280;7840;42.702;23.296;2022-12-05T10:56:39;95949.81;;;7.57;100.00
15477;BME280;7840;42.702;23.296;2022-12-05T10:59:23;95938.44;;;7.70;100.00
15477;BME280;7840;42.702;23.296;2022-12-05T11:01:54;95939.63;;;7.74;100.00
15477;BME280;7840;42.702;23.296;2022-12-05T11:04:41;95934.81;;;7.57;100.00
15477;BME280;7840;42.702;23.296;2022-12-05T11:07:44;95936.00;;;7.61;100.00
15477;BME280;7840;42.702;23.296;2022-12-05T11:10:25;95928.50;;;7.58;100.00
15477;BME280;7840;42.702;23.296;2022-12-05T11:12:55;95939.28;;;7.50;100.00
15477;BME280;7840;42.702;23.296;2022-12-05T11:15:25;95929.91;;;7.61;100.00
15477;BME280;7840;42.702;23.296;2022-12-05T11:17:55;95921.78;;;7.76;100.00
15477;BME280;7840;42.702;23.296;2022-12-05T11:20:36;95923.41;;;7.77;100.00
15477;BME280;7840;42.702;23.296;2022-12-05T11:23:21;95917.75;;;7.66;100.00
15477;BME280;7840;42.702;23.296;2022-12-05T11:25:52;95919.03;;;7.44;100.00
15477;BME280;7840;42.702;23.296;2022-12-05T11:28:30;95921.44;;;7.46;100.00
15477;BME280;7840;42.702;23.296;2022-12-05T11:31:31;95909.28;;;7.51;100.00
15477;BME280;7840;42.702;23.296;2022-12-05T11:34:02;95909.06;;;7.53;100.00
15477;BME280;7840;42.702;23.296;2022-12-05T11:37:12;95904.84;;;7.38;100.00
15477;BME280;7840;42.702;23.296;2022-12-05T11:39:41;95890.03;;;7.44;100.00
15477;BME280;7840;42.702;23.296;2022-12-05T11:42:21;95892.84;;;7.49;100.00
15477;BME280;7840;42.702;23.296;2022-12-05T11:48:10;95892.69;;;7.31;100.00
15477;BME280;7840;42.702;23.296;2022-12-05T11:51:13;95884.56;;;7.39;100.00
15477;BME280;7840;42.702;23.296;2022-12-05T11:54:16;95877.47;;;7.26;100.00
15477;BME280;7840;42.702;23.296;2022-12-05T11:56:53;95879.28;;;7.39;100.00
15477;BME280;7840;42.702;23.296;2022-12-05T11:59:49;95872.41;;;7.38;100.00
15477;BME280;7840;42.702;23.296;2022-12-05T12:02:29;95868.75;;;7.39;100.00
15477;BME280;7840;42.702;23.296;2022-12-05T12:05:17;95872.63;;;7.30;100.00
15477;BME280;7840;42.702;23.296;2022-12-05T12:08:09;95868.75;;;7.26;100.00
15477;BME280;7840;42.702;23.296;2022-12-05T12:11:03;95865.56;;;7.10;100.00
15477;BME280;7840;42.702;23.296;2022-12-05T12:13:56;95859.28;;;7.05;100.00
15477;BME280;7840;42.702;23.296;2022-12-05T12:16:44;95861.69;;;7.06;100.00
15477;BME280;7840;42.702;23.296;2022-12-05T12:19:34;95857.47;;;6.92;100.00
15477;BME280;7840;42.702;23.296;2022-12-05T12:25:16;95850.19;;;6.94;100.00
15477;BME280;7840;42.702;23.296;2022-12-05T12:27:55;95848.56;;;6.93;100.00
15477;BME280;7840;42.702;23.296;2022-12-05T12:31:05;95842.91;;;6.83;100.00
15477;BME280;7840;42.702;23.296;2022-12-05T12:34:33;95839.03;;;6.92;100.00
15477;BME280;7840;42.702;23.296;2022-12-05T12:37:24;95844.50;;;6.97;100.00
15477;BME280;7840;42.702;23.296;2022-12-05T12:40:03;95836.41;;;6.79;100.00
15477;BME280;7840;42.702;23.296;2022-12-05T12:43:04;95843.09;;;6.95;100.00
15477;BME280;7840;42.702;23.296;2022-12-05T12:46:02;95834.78;;;6.91;100.00
15477;BME280;7840;42.702;23.296;2022-12-05T12:48:49;95833.56;;;6.94;100.00
15477;BME280;7840;42.702;23.296;2022-12-05T12:51:24;95838.41;;;7.03;100.00
15477;BME280;7840;42.702;23.296;2022-12-05T12:54:16;95832.78;;;6.93;100.00
15477;BME280;7840;42.702;23.296;2022-12-05T12:56:59;95830.31;;;6.98;100.00
15477;BME280;7840;42.702;23.296;2022-12-05T12:59:52;95835.56;;;6.98;100.00
15477;BME280;7840;42.702;23.296;2022-12-05T13:02:35;95833.38;;;6.95;100.00
15477;BME280;7840;42.702;23.296;2022-12-05T13:05:14;95820.41;;;7.00;100.00
15477;BME280;7840;42.702;23.296;2022-12-05T13:07:50;95830.94;;;6.87;100.00
15477;BME280;7840;42.702;23.296;2022-12-05T13:10:26;95829.13;;;6.94;100.00
15477;BME280;7840;42.702;23.296;2022-12-05T13:12:57;95835.59;;;6.85;100.00
15477;BME280;7840;42.702;23.296;2022-12-05T13:15:33;95830.72;;;6.95;100.00
15477;BME280;7840;42.702;23.296;2022-12-05T13:18:10;95833.59;;;6.87;100.00
15477;BME280;7840;42.702;23.296;2022-12-05T13:20:43;95832.34;;;6.83;100.00
15477;BME280;7840;42.702;23.296;2022-12-05T13:23:21;95839.66;;;6.74;100.00
15477;BME280;7840;42.702;23.296;2022-12-05T13:26:08;95831.97;;;6.60;100.00
15477;BME280;7840;42.702;23.296;2022-12-05T13:28:39;95829.13;;;6.61;100.00
15477;BME280;7840;42.702;23.296;2022-12-05T13:31:37;95835.59;;;6.65;100.00
15477;BME280;7840;42.702;23.296;2022-12-05T13:34:41;95831.16;;;6.66;100.00
15477;BME280;7840;42.702;23.296;2022-12-05T13:37:21;95838.44;;;6.70;100.00
15477;BME280;7840;42.702;23.296;2022-12-05T13:40:20;95845.94;;;6.80;100.00
15477;BME280;7840;42.702;23.296;2022-12-05T13:43:06;95838.44;;;6.77;100.00
15477;BME280;7840;42.702;23.296;2022-12-05T13:45:35;95838.44;;;6.70;100.00
15477;BME280;7840;42.702;23.296;2022-12-05T13:48:14;95829.34;;;6.60;100.00
15477;BME280;7840;42.702;23.296;2022-12-05T13:50:51;95835.41;;;6.60;100.00
15477;BME280;7840;42.702;23.296;2022-12-05T13:53:34;95833.97;;;6.57;100.00
15477;BME280;7840;42.702;23.296;2022-12-05T13:56:26;95830.38;;;6.52;100.00
15477;BME280;7840;42.702;23.296;2022-12-05T13:58:55;95827.09;;;6.56;100.00
15477;BME280;7840;42.702;23.296;2022-12-05T14:01:45;95836.44;;;6.46;100.00
15477;BME280;7840;42.702;23.296;2022-12-05T14:04:45;95837.03;;;6.54;100.00
15477;BME280;7840;42.702;23.296;2022-12-05T14:07:40;95833.97;;;6.57;100.00
15477;BME280;7840;42.702;23.296;2022-12-05T14:31:10;95839.84;;;6.20;100.00
15477;BME280;7840;42.702;23.296;2022-12-05T14:33:42;95838.84;;;6.27;100.00
15477;BME280;7840;42.702;23.296;2022-12-05T14:36:15;95835.19;;;6.35;100.00
15477;BME280;7840;42.702;23.296;2022-12-05T14:38:45;95837.59;;;6.30;100.00